sensor_id;sensor_type;location;lat;lon;timestamp;pressure;altitude;pressure_sealevel;temperature;humidity
25498;BME280;13406;53.380;7.226;2023-07-13T00:02:00;102203.22;;;16.89;100.00
25498;BME280;13406;53.380;7.226;2023-07-13T00:04:26;102237.31;;;16.57;100.00
25498;BME280;13406;53.380;7.226;2023-07-13T00:06:52;102349.59;;;16.96;100.00
25498;BME280;13406;53.380;7.226;2023-07-13T00:09:18;102329.41;;;17.19;100.00
25498;BME280;13406;53.380;7.226;2023-07-13T00:11:45;102118.88;;;16.04;100.00
25498;BME280;13406;53.380;7.226;2023-07-13T00:14:13;102294.97;;;16.99;100.00
25498;BME280;13406;53.380;7.226;2023-07-13T00:16:39;102249.81;;;16.58;100.00
25498;BME280;13406;53.380;7.226;2023-07-13T00:19:09;102336.22;;;16.94;100.00
25498;BME280;13406;53.380;7.226;2023-07-13T00:21:35;102342.66;;;16.80;100.00
25498;BME280;13406;53.380;7.226;2023-07-13T00:24:01;102268.25;;;16.28;100.00
25498;BME280;13406;53.380;7.226;2023-07-13T00:26:26;102178.94;;;15.80;100.00
25498;BME280;13406;53.380;7.226;2023-07-13T00:28:52;102277.97;;;16.16;100.00
25498;BME280;13406;53.380;7.226;2023-07-13T00:31:17;102301.13;;;16.25;100.00
25498;BME280;13406;53.380;7.226;2023-07-13T00:33:43;102391.66;;;16.85;100.00
25498;BME280;13406;53.380;7.226;2023-07-13T00:36:10;102325.50;;;16.25;100.00
25498;BME280;13406;53.380;7.226;2023-07-13T00:38:35;102384.81;;;16.55;100.00
25498;BME280;13406;53.380;7.226;2023-07-13T00:41:02;102430.09;;;16.67;100.00
25498;BME280;13406;53.380;7.226;2023-07-13T00:43:29;102419.16;;;16.82;100.00
25498;BME280;13406;53.380;7.226;2023-07-13T00:48:55;102493.09;;;16.41;100.00
25498;BME280;13406;53.380;7.226;2023-07-13T00:51:26;102536.28;;;16.49;100.00
25498;BME280;13406;53.380;7.226;2023-07-13T00:53:54;102546.06;;;16.50;100.00
25498;BME280;13406;53.380;7.226;2023-07-13T00:56:22;102401.81;;;15.57;100.00
25498;BME280;13406;53.380;7.226;2023-07-13T00:58:48;102545.19;;;16.43;100.00
25498;BME280;13406;53.380;7.226;2023-07-13T01:01:13;102407.47;;;15.63;100.00
25498;BME280;13406;53.380;7.226;2023-07-13T01:03:39;102547.19;;;16.35;100.00
25498;BME280;13406;53.380;7.226;2023-07-13T01:06:06;102377.84;;;15.11;100.00
25498;BME280;13406;53.380;7.226;2023-07-13T01:08:31;102561.97;;;16.32;100.00
25498;BME280;13406;53.380;7.226;2023-07-13T01:10:57;102477.78;;;15.63;100.00
25498;BME280;13406;53.380;7.226;2023-07-13T01:13:23;102462.84;;;15.45;100.00
25498;BME280;13406;53.380;7.226;2023-07-13T01:15:50;102466.44;;;15.52;100.00
25498;BME280;13406;53.380;7.226;2023-07-13T01:18:20;102324.56;;;14.69;100.00
25498;BME280;13406;53.380;7.226;2023-07-13T01:21:01;102491.53;;;15.25;100.00
25498;BME280;13406;53.380;7.226;2023-07-13T01:23:27;102581.81;;;16.18;100.00
25498;BME280;13406;53.380;7.226;2023-07-13T01:25:53;102355.50;;;15.03;100.00
25498;BME280;13406;53.380;7.226;2023-07-13T01:28:20;102422.84;;;15.19;100.00
25498;BME280;13406;53.380;7.226;2023-07-13T01:30:46;102480.56;;;15.48;100.00
25498;BME280;13406;53.380;7.226;2023-07-13T01:33:16;102582.44;;;16.20;100.00
25498;BME280;13406;53.380;7.226;2023-07-13T01:35:44;102589.47;;;16.36;100.00
25498;BME280;13406;53.380;7.226;2023-07-13T01:38:13;102477.31;;;15.59;100.00
25498;BME280;13406;53.380;7.226;2023-07-13T01:40:39;102541.97;;;15.90;100.00
25498;BME280;13406;53.380;7.226;2023-07-13T01:43:04;102503.47;;;15.52;100.00
25498;BME280;13406;53.380;7.226;2023-07-13T01:45:31;102622.09;;;16.27;100.00
25498;BME280;13406;53.380;7.226;2023-07-13T01:47:56;102566.44;;;15.97;100.00
25498;BME280;13406;53.380;7.226;2023-07-13T01:50:23;102579.81;;;15.84;100.00
25498;BME280;13406;53.380;7.226;2023-07-13T01:52:49;102491.13;;;15.28;100.00
25498;BME280;13406;53.380;7.226;2023-07-13T01:55:14;102557.38;;;15.90;100.00
25498;BME280;13406;53.380;7.226;2023-07-13T01:57:39;102617.66;;;16.20;100.00
25498;BME280;13406;53.380;7.226;2023-07-13T02:00:08;102653.44;;;16.37;100.00
25498;BME280;13406;53.380;7.226;2023-07-13T02:02:33;102653.38;;;16.52;100.00
25498;BME280;13406;53.380;7.226;2023-07-13T02:04:59;102625.31;;;16.16;100.00
25498;BME280;13406;53.380;7.226;2023-07-13T02:07:24;102558.34;;;15.67;100.00
25498;BME280;13406;53.380;7.226;2023-07-13T02:09:50;102560.44;;;15.50;100.00
25498;BME280;13406;53.380;7.226;2023-07-13T02:12:15;102675.09;;;16.15;100.00
25498;BME280;13406;53.380;7.226;2023-07-13T02:14:40;102649.06;;;16.14;100.00
25498;BME280;13406;53.380;7.226;2023-07-13T02:17:06;102688.56;;;16.30;100.00
25498;BME280;13406;53.380;7.226;2023-07-13T02:19:31;102694.06;;;16.37;100.00
25498;BME280;13406;53.380;7.226;2023-07-13T02:21:57;102537.72;;;15.30;100.00
25498;BME280;13406;53.380;7.226;2023-07-13T02:24:22;102694.38;;;16.27;100.00
25498;BME280;13406;53.380;7.226;2023-07-13T02:26:47;102517.22;;;15.21;100.00
25498;BME280;13406;53.380;7.226;2023-07-13T02:29:13;102674.16;;;16.23;100.00
25498;BME280;13406;53.380;7.226;2023-07-13T02:31:39;102566.56;;;15.59;100.00
25498;BME280;13406;53.380;7.226;2023-07-13T02:34:04;102639.06;;;16.15;100.00
25498;BME280;13406;53.380;7.226;2023-07-13T02:36:31;102674.91;;;16.38;100.00
25498;BME280;13406;53.380;7.226;2023-07-13T02:38:59;102529.63;;;15.30;100.00
25498;BME280;13406;53.380;7.226;2023-07-13T02:41:26;102562.03;;;15.59;100.00
25498;BME280;13406;53.380;7.226;2023-07-13T02:43:51;102558.34;;;15.67;100.00
25498;BME280;13406;53.380;7.226;2023-07-13T02:46:16;102536.72;;;15.31;100.00
25498;BME280;13406;53.380;7.226;2023-07-13T02:48:42;102544.59;;;15.47;100.00
25498;BME280;13406;53.380;7.226;2023-07-13T02:51:08;102670.84;;;16.27;100.00
25498;BME280;13406;53.380;7.226;2023-07-13T02:53:33;102559.97;;;15.47;100.00
25498;BME280;13406;53.380;7.226;2023-07-13T02:56:00;102526.28;;;15.64;100.00
25498;BME280;13406;53.380;7.226;2023-07-13T02:58:25;102669.56;;;16.23;100.00
25498;BME280;13406;53.380;7.226;2023-07-13T03:00:51;102606.47;;;15.87;100.00
25498;BME280;13406;53.380;7.226;2023-07-13T03:03:17;102617.69;;;15.84;100.00
25498;BME280;13406;53.380;7.226;2023-07-13T03:05:44;102677.31;;;16.26;100.00
25498;BME280;13406;53.380;7.226;2023-07-13T03:08:10;102674.31;;;16.21;100.00
25498;BME280;13406;53.380;7.226;2023-07-13T03:10:36;102565.50;;;15.68;100.00
25498;BME280;13406;53.380;7.226;2023-07-13T03:13:02;102655.63;;;16.26;100.00
25498;BME280;13406;53.380;7.226;2023-07-13T03:15:27;102654.34;;;16.44;100.00
25498;BME280;13406;53.380;7.226;2023-07-13T03:17:53;102476.75;;;15.27;100.00
25498;BME280;13406;53.380;7.226;2023-07-13T03:20:18;102617.78;;;16.12;100.00
25498;BME280;13406;53.380;7.226;2023-07-13T03:22:44;102663.81;;;16.33;100.00
25498;BME280;13406;53.380;7.226;2023-07-13T03:25:09;102660.94;;;16.35;100.00
25498;BME280;13406;53.380;7.226;2023-07-13T03:27:36;102588.31;;;15.80;100.00
25498;BME280;13406;53.380;7.226;2023-07-13T03:30:02;102611.84;;;16.01;100.00
25498;BME280;13406;53.380;7.226;2023-07-13T03:32:28;102639.44;;;16.12;100.00
25498;BME280;13406;53.380;7.226;2023-07-13T03:34:53;102629.56;;;16.04;100.00
25498;BME280;13406;53.380;7.226;2023-07-13T03:37:18;102545.19;;;15.43;100.00
25498;BME280;13406;53.380;7.226;2023-07-13T03:39:44;102664.66;;;16.12;100.00
25498;BME280;13406;53.380;7.226;2023-07-13T03:42:09;102636.53;;;16.13;100.00
25498;BME280;13406;53.380;7.226;2023-07-13T03:44:35;102561.09;;;15.52;100.00
25498;BME280;13406;53.380;7.226;2023-07-13T03:47:00;102469.09;;;14.80;100.00
25498;BME280;13406;53.380;7.226;2023-07-13T03:49:26;102645.44;;;16.07;100.00
25498;BME280;13406;53.380;7.226;2023-07-13T03:51:51;102500.19;;;15.20;100.00
25498;BME280;13406;53.380;7.226;2023-07-13T03:54:17;102643.16;;;16.11;100.00
25498;BME280;13406;53.380;7.226;2023-07-13T03:56:42;102642.28;;;16.25;100.00
25498;BME280;13406;53.380;7.226;2023-07-13T03:59:08;102597.38;;;15.73;100.00
25498;BME280;13406;53.380;7.226;2023-07-13T04:01:33;102492.09;;;15.05;100.00
25498;BME280;13406;53.380;7.226;2023-07-13T04:03:59;102488.91;;;15.17;100.00
25498;BME280;13406;53.380;7.226;2023-07-13T04:06:29;102641.38;;;16.18;100.00
25498;BME280;13406;53.380;7.226;2023-07-13T04:08:58;102619.19;;;15.86;100.00
25498;BME280;13406;53.380;7.226;2023-07-13T04:11:26;102626.88;;;16.04;100.00
25498;BME280;13406;53.380;7.226;2023-07-13T04:13:52;102617.19;;;15.95;100.00
25498;BME280;13406;53.380;7.226;2023-07-13T04:16:19;102607.41;;;15.79;100.00
25498;BME280;13406;53.380;7.226;2023-07-13T04:18:45;102635.16;;;16.02;100.00
25498;BME280;13406;53.380;7.226;2023-07-13T04:21:11;102652.47;;;16.23;100.00
25498;BME280;13406;53.380;7.226;2023-07-13T04:23:38;102634.88;;;16.12;100.00
25498;BME280;13406;53.380;7.226;2023-07-13T04:26:04;102648.03;;;16.15;100.00
25498;BME280;13406;53.380;7.226;2023-07-13T04:28:29;102591.06;;;15.87;100.00
25498;BME280;13406;53.380;7.226;2023-07-13T04:30:55;102651.00;;;16.42;100.00
25498;BME280;13406;53.380;7.226;2023-07-13T04:33:21;102614.75;;;16.21;100.00
25498;BME280;13406;53.380;7.226;2023-07-13T04:35:48;102510.16;;;15.56;100.00
25498;BME280;13406;53.380;7.226;2023-07-13T04:38:15;102641.31;;;16.54;100.00
25498;BME280;13406;53.380;7.226;2023-07-13T04:40:44;102641.00;;;16.42;100.00
25498;BME280;13406;53.380;7.226;2023-07-13T04:43:10;102547.41;;;15.90;100.00
25498;BME280;13406;53.380;7.226;2023-07-13T04:45:36;102624.09;;;16.19;100.00
25498;BME280;13406;53.380;7.226;2023-07-13T04:48:02;102656.22;;;16.43;100.00
25498;BME280;13406;53.380;7.226;2023-07-13T04:50:28;102611.72;;;16.31;100.00
25498;BME280;13406;53.380;7.226;2023-07-13T04:52:53;102601.03;;;16.44;100.00
25498;BME280;13406;53.380;7.226;2023-07-13T04:55:19;102456.00;;;15.28;100.00
25498;BME280;13406;53.380;7.226;2023-07-13T04:57:46;102628.81;;;16.32;100.00
25498;BME280;13406;53.380;7.226;2023-07-13T05:00:12;102603.59;;;16.10;100.00
25498;BME280;13406;53.380;7.226;2023-07-13T05:02:39;102562.84;;;15.75;100.00
25498;BME280;13406;53.380;7.226;2023-07-13T05:05:05;102571.38;;;15.93;100.00
25498;BME280;13406;53.380;7.226;2023-07-13T05:07:31;102594.00;;;16.07;100.00
25498;BME280;13406;53.380;7.226;2023-07-13T05:09:58;102555.97;;;15.94;100.00
25498;BME280;13406;53.380;7.226;2023-07-13T05:12:24;102579.03;;;16.11;100.00
25498;BME280;13406;53.380;7.226;2023-07-13T05:14:50;102567.38;;;16.32;100.00
25498;BME280;13406;53.380;7.226;2023-07-13T05:17:15;102626.66;;;16.48;100.00
25498;BME280;13406;53.380;7.226;2023-07-13T05:19:41;102542.13;;;16.03;100.00
25498;BME280;13406;53.380;7.226;2023-07-13T05:22:06;102505.47;;;15.79;100.00
25498;BME280;13406;53.380;7.226;2023-07-13T05:24:32;102623.03;;;16.63;100.00
25498;BME280;13406;53.380;7.226;2023-07-13T05:26:57;102630.38;;;16.69;100.00
25498;BME280;13406;53.380;7.226;2023-07-13T05:29:23;102539.66;;;15.87;100.00
25498;BME280;13406;53.380;7.226;2023-07-13T05:31:49;102606.31;;;16.31;100.00
25498;BME280;13406;53.380;7.226;2023-07-13T05:34:14;102567.38;;;15.89;100.00
25498;BME280;13406;53.380;7.226;2023-07-13T05:36:40;102633.53;;;16.44;100.00
25498;BME280;13406;53.380;7.226;2023-07-13T05:39:06;102470.19;;;15.51;100.00
25498;BME280;13406;53.380;7.226;2023-07-13T05:41:31;102479.97;;;15.52;100.00
25498;BME280;13406;53.380;7.226;2023-07-13T05:43:57;102643.31;;;16.67;100.00
25498;BME280;13406;53.380;7.226;2023-07-13T05:46:22;102596.38;;;16.38;100.00
25498;BME280;13406;53.380;7.226;2023-07-13T05:48:48;102484.28;;;15.47;100.00
25498;BME280;13406;53.380;7.226;2023-07-13T05:51:13;102559.34;;;16.17;100.00
25498;BME280;13406;53.380;7.226;2023-07-13T05:53:39;102589.22;;;16.31;100.00
25498;BME280;13406;53.380;7.226;2023-07-13T05:56:04;102587.09;;;16.47;100.00
25498;BME280;13406;53.380;7.226;2023-07-13T05:58:30;102520.97;;;16.14;100.00
25498;BME280;13406;53.380;7.226;2023-07-13T06:01:04;102636.84;;;16.89;100.00
25498;BME280;13406;53.380;7.226;2023-07-13T06:03:30;102481.06;;;15.94;100.00
25498;BME280;13406;53.380;7.226;2023-07-13T06:05:56;102505.75;;;16.13;100.00
25498;BME280;13406;53.380;7.226;2023-07-13T06:08:21;102572.88;;;16.67;100.00
25498;BME280;13406;53.380;7.226;2023-07-13T06:10:47;102621.72;;;17.02;100.00
25498;BME280;13406;53.380;7.226;2023-07-13T06:13:12;102623.94;;;16.91;100.00
25498;BME280;13406;53.380;7.226;2023-07-13T06:15:37;102619.94;;;17.15;100.00
25498;BME280;13406;53.380;7.226;2023-07-13T06:18:03;102576.22;;;16.97;100.00
25498;BME280;13406;53.380;7.226;2023-07-13T06:20:29;102618.25;;;17.14;100.00
25498;BME280;13406;53.380;7.226;2023-07-13T06:22:55;102444.78;;;16.17;100.00
25498;BME280;13406;53.380;7.226;2023-07-13T06:25:20;102605.00;;;17.33;100.00
25498;BME280;13406;53.380;7.226;2023-07-13T06:27:46;102552.16;;;16.81;100.00
25498;BME280;13406;53.380;7.226;2023-07-13T06:30:11;102465.63;;;16.51;100.00
25498;BME280;13406;53.380;7.226;2023-07-13T06:32:37;102512.56;;;16.86;100.00
25498;BME280;13406;53.380;7.226;2023-07-13T06:35:03;102571.28;;;17.49;100.00
25498;BME280;13406;53.380;7.226;2023-07-13T06:37:29;102583.19;;;17.54;100.00
25498;BME280;13406;53.380;7.226;2023-07-13T06:39:54;102572.81;;;17.23;100.00
25498;BME280;13406;53.380;7.226;2023-07-13T06:42:19;102589.84;;;17.45;100.00
25498;BME280;13406;53.380;7.226;2023-07-13T06:44:45;102592.31;;;17.47;100.00
25498;BME280;13406;53.380;7.226;2023-07-13T06:47:10;102568.72;;;17.40;100.00
25498;BME280;13406;53.380;7.226;2023-07-13T06:49:36;102407.38;;;16.68;100.00
25498;BME280;13406;53.380;7.226;2023-07-13T06:52:02;102513.00;;;17.38;100.00
25498;BME280;13406;53.380;7.226;2023-07-13T06:54:27;102451.34;;;16.99;100.00
25498;BME280;13406;53.380;7.226;2023-07-13T06:56:53;102362.78;;;16.64;100.00
25498;BME280;13406;53.380;7.226;2023-07-13T06:59:19;102524.03;;;18.04;100.00
25498;BME280;13406;53.380;7.226;2023-07-13T07:01:44;102452.59;;;17.84;100.00
25498;BME280;13406;53.380;7.226;2023-07-13T07:04:10;102335.25;;;17.35;100.00
25498;BME280;13406;53.380;7.226;2023-07-13T07:06:35;102340.47;;;17.90;100.00
25498;BME280;13406;53.380;7.226;2023-07-13T07:09:01;102208.00;;;17.14;100.00
25498;BME280;13406;53.380;7.226;2023-07-13T07:11:26;102335.41;;;18.20;100.00
25498;BME280;13406;53.380;7.226;2023-07-13T07:13:52;102210.22;;;17.77;100.00
25498;BME280;13406;53.380;7.226;2023-07-13T07:16:19;102209.53;;;18.01;100.00
25498;BME280;13406;53.380;7.226;2023-07-13T07:18:45;102236.28;;;18.43;100.00
25498;BME280;13406;53.380;7.226;2023-07-13T07:21:11;102228.06;;;18.56;100.00
25498;BME280;13406;53.380;7.226;2023-07-13T07:23:37;102030.91;;;17.33;100.00
25498;BME280;13406;53.380;7.226;2023-07-13T07:26:03;101965.03;;;17.20;100.00
25498;BME280;13406;53.380;7.226;2023-07-13T07:28:28;102110.47;;;18.42;100.00
25498;BME280;13406;53.380;7.226;2023-07-13T07:30:56;102104.22;;;18.42;100.00
25498;BME280;13406;53.380;7.226;2023-07-13T07:33:22;102072.66;;;18.16;100.00
25498;BME280;13406;53.380;7.226;2023-07-13T07:35:48;101984.16;;;17.70;100.00
25498;BME280;13406;53.380;7.226;2023-07-13T07:38:13;102130.78;;;18.65;100.00
25498;BME280;13406;53.380;7.226;2023-07-13T07:40:40;102025.56;;;18.28;100.00
25498;BME280;13406;53.380;7.226;2023-07-13T07:43:07;101857.25;;;17.47;100.00
25498;BME280;13406;53.380;7.226;2023-07-13T07:45:32;101905.25;;;18.03;100.00
25498;BME280;13406;53.380;7.226;2023-07-13T07:47:58;101993.75;;;18.79;100.00
25498;BME280;13406;53.380;7.226;2023-07-13T07:50:25;101835.97;;;18.00;100.00
25498;BME280;13406;53.380;7.226;2023-07-13T07:52:51;101792.91;;;18.04;100.00
25498;BME280;13406;53.380;7.226;2023-07-13T07:55:16;101830.56;;;18.37;100.00
25498;BME280;13406;53.380;7.226;2023-07-13T07:57:42;101907.75;;;18.85;100.00
25498;BME280;13406;53.380;7.226;2023-07-13T08:00:08;101848.56;;;18.50;100.00
25498;BME280;13406;53.380;7.226;2023-07-13T08:02:33;101884.94;;;19.04;100.00
25498;BME280;13406;53.380;7.226;2023-07-13T08:04:59;101729.09;;;17.95;100.00
25498;BME280;13406;53.380;7.226;2023-07-13T08:07:24;101798.97;;;18.73;100.00
25498;BME280;13406;53.380;7.226;2023-07-13T08:09:53;101676.72;;;18.43;100.00
25498;BME280;13406;53.380;7.226;2023-07-13T08:12:19;101565.09;;;18.44;100.00
25498;BME280;13406;53.380;7.226;2023-07-13T08:14:44;101579.34;;;19.05;100.00
25498;BME280;13406;53.380;7.226;2023-07-13T08:17:10;101520.00;;;19.14;100.00
25498;BME280;13406;53.380;7.226;2023-07-13T08:19:35;101430.22;;;18.85;100.00
25498;BME280;13406;53.380;7.226;2023-07-13T08:22:01;101378.41;;;19.04;100.00
25498;BME280;13406;53.380;7.226;2023-07-13T08:24:26;101480.53;;;19.80;100.00
25498;BME280;13406;53.380;7.226;2023-07-13T08:26:51;101348.81;;;18.67;100.00
25498;BME280;13406;53.380;7.226;2023-07-13T08:29:18;101448.22;;;19.15;100.00
25498;BME280;13406;53.380;7.226;2023-07-13T08:31:43;101461.97;;;19.37;100.00
25498;BME280;13406;53.380;7.226;2023-07-13T08:34:09;101358.94;;;18.95;100.00
25498;BME280;13406;53.380;7.226;2023-07-13T08:36:34;101393.00;;;19.14;100.00
25498;BME280;13406;53.380;7.226;2023-07-13T08:38:59;101423.34;;;19.52;100.00
25498;BME280;13406;53.380;7.226;2023-07-13T08:41:25;101329.41;;;19.15;100.00
25498;BME280;13406;53.380;7.226;2023-07-13T08:43:56;101410.50;;;19.93;100.00
25498;BME280;13406;53.380;7.226;2023-07-13T08:46:36;101253.19;;;19.10;100.00
25498;BME280;13406;53.380;7.226;2023-07-13T08:49:15;101394.41;;;19.91;100.00
25498;BME280;13406;53.380;7.226;2023-07-13T08:51:51;101340.81;;;19.46;100.00
25498;BME280;13406;53.380;7.226;2023-07-13T08:54:24;101302.56;;;19.19;100.00
25498;BME280;13406;53.380;7.226;2023-07-13T08:56:53;101276.56;;;18.54;100.00
25498;BME280;13406;53.380;7.226;2023-07-13T08:59:24;101465.09;;;19.29;100.00
25498;BME280;13406;53.380;7.226;2023-07-13T09:04:42;101485.28;;;18.92;100.00
25498;BME280;13406;53.380;7.226;2023-07-13T09:07:32;101492.59;;;19.04;100.00
25498;BME280;13406;53.380;7.226;2023-07-13T09:10:27;101362.09;;;18.16;100.00
25498;BME280;13406;53.380;7.226;2023-07-13T09:15:34;101469.19;;;18.91;100.00
25498;BME280;13406;53.380;7.226;2023-07-13T09:18:21;101486.16;;;19.22;100.00
25498;BME280;13406;53.380;7.226;2023-07-13T09:20:57;101436.63;;;19.19;100.00
25498;BME280;13406;53.380;7.226;2023-07-13T09:23:27;101472.34;;;19.52;100.00
25498;BME280;13406;53.380;7.226;2023-07-13T09:26:00;101443.50;;;19.79;100.00
25498;BME280;13406;53.380;7.226;2023-07-13T09:28:32;101431.91;;;19.72;100.00
25498;BME280;13406;53.380;7.226;2023-07-13T09:31:10;101366.75;;;19.20;100.00
25498;BME280;13406;53.380;7.226;2023-07-13T09:33:39;101446.84;;;19.70;100.00
25498;BME280;13406;53.380;7.226;2023-07-13T09:38:49;101465.59;;;19.54;100.00
25498;BME280;13406;53.380;7.226;2023-07-13T09:41:26;101415.50;;;19.38;100.00
25498;BME280;13406;53.380;7.226;2023-07-13T09:46:27;101320.34;;;19.10;100.00
25498;BME280;13406;53.380;7.226;2023-07-13T09:48:52;101423.97;;;19.99;100.00
25498;BME280;13406;53.380;7.226;2023-07-13T09:51:18;101393.72;;;19.84;100.00
25498;BME280;13406;53.380;7.226;2023-07-13T09:53:43;101332.09;;;19.44;100.00
25498;BME280;13406;53.380;7.226;2023-07-13T09:56:37;101386.25;;;19.46;100.00
25498;BME280;13406;53.380;7.226;2023-07-13T09:59:03;101436.56;;;19.60;100.00
25498;BME280;13406;53.380;7.226;2023-07-13T10:01:37;101347.41;;;17.58;100.00
25498;BME280;13406;53.380;7.226;2023-07-13T10:04:13;101569.19;;;19.01;100.00
25498;BME280;13406;53.380;7.226;2023-07-13T10:06:41;101496.84;;;18.52;100.00
25498;BME280;13406;53.380;7.226;2023-07-13T10:09:09;101443.44;;;18.11;100.00
25498;BME280;13406;53.380;7.226;2023-07-13T10:11:36;101552.78;;;18.84;100.00
25498;BME280;13406;53.380;7.226;2023-07-13T10:16:38;101520.00;;;18.55;100.00
25498;BME280;13406;53.380;7.226;2023-07-13T10:19:15;101521.19;;;18.83;100.00
25498;BME280;13406;53.380;7.226;2023-07-13T10:21:57;101552.59;;;18.55;100.00
25498;BME280;13406;53.380;7.226;2023-07-13T10:24:27;101560.97;;;18.00;100.00
25498;BME280;13406;53.380;7.226;2023-07-13T10:27:12;101651.72;;;18.04;100.00
25498;BME280;13406;53.380;7.226;2023-07-13T10:29:45;101935.72;;;18.05;100.00
25498;BME280;13406;53.380;7.226;2023-07-13T10:32:12;101987.50;;;17.72;100.00
25498;BME280;13406;53.380;7.226;2023-07-13T10:34:39;101982.16;;;17.58;100.00
25498;BME280;13406;53.380;7.226;2023-07-13T10:37:07;101956.88;;;16.48;100.00
25498;BME280;13406;53.380;7.226;2023-07-13T10:39:41;102093.97;;;17.02;100.00
25498;BME280;13406;53.380;7.226;2023-07-13T10:42:11;101999.41;;;16.41;100.00
25498;BME280;13406;53.380;7.226;2023-07-13T10:44:40;102142.09;;;15.44;100.00
25498;BME280;13406;53.380;7.226;2023-07-13T10:47:10;102289.97;;;16.41;100.00
25498;BME280;13406;53.380;7.226;2023-07-13T10:49:39;102417.44;;;15.19;100.00
25498;BME280;13406;53.380;7.226;2023-07-13T10:52:42;102676.94;;;15.78;100.00
25498;BME280;13406;53.380;7.226;2023-07-13T10:55:31;102654.00;;;16.11;100.00
25498;BME280;13406;53.380;7.226;2023-07-13T10:58:12;102689.94;;;16.41;100.00
25498;BME280;13406;53.380;7.226;2023-07-13T11:01:03;102663.59;;;15.77;100.00
25498;BME280;13406;53.380;7.226;2023-07-13T11:03:31;102712.41;;;16.20;100.00
25498;BME280;13406;53.380;7.226;2023-07-13T11:21:29;102640.88;;;17.00;100.00
25498;BME280;13406;53.380;7.226;2023-07-13T11:24:16;102664.84;;;17.66;100.00
25498;BME280;13406;53.380;7.226;2023-07-13T11:31:40;102571.03;;;17.92;100.00
25498;BME280;13406;53.380;7.226;2023-07-13T11:34:15;102537.84;;;18.43;100.00
25498;BME280;13406;53.380;7.226;2023-07-13T11:36:44;102497.91;;;17.83;100.00
25498;BME280;13406;53.380;7.226;2023-07-13T11:39:20;102490.00;;;18.02;100.00
25498;BME280;13406;53.380;7.226;2023-07-13T11:41:53;102479.06;;;17.62;100.00
25498;BME280;13406;53.380;7.226;2023-07-13T11:44:23;102581.50;;;18.15;100.00
25498;BME280;13406;53.380;7.226;2023-07-13T11:46:52;102536.38;;;18.47;100.00
25498;BME280;13406;53.380;7.226;2023-07-13T11:49:22;102466.97;;;18.58;100.00
25498;BME280;13406;53.380;7.226;2023-07-13T11:51:48;102483.25;;;18.78;100.00
25498;BME280;13406;53.380;7.226;2023-07-13T11:54:52;102531.75;;;18.54;100.00
25498;BME280;13406;53.380;7.226;2023-07-13T11:57:37;102537.66;;;19.36;100.00
25498;BME280;13406;53.380;7.226;2023-07-13T12:00:12;102419.88;;;19.22;100.00
25498;BME280;13406;53.380;7.226;2023-07-13T12:02:41;102242.69;;;19.18;100.00
25498;BME280;13406;53.380;7.226;2023-07-13T12:05:12;102234.72;;;19.67;100.00
25498;BME280;13406;53.380;7.226;2023-07-13T12:07:39;102006.69;;;18.34;100.00
25498;BME280;13406;53.380;7.226;2023-07-13T12:10:15;102062.09;;;19.75;100.00
25498;BME280;13406;53.380;7.226;2023-07-13T12:12:53;101929.66;;;19.38;100.00
25498;BME280;13406;53.380;7.226;2023-07-13T12:15:20;101946.06;;;19.32;100.00
25498;BME280;13406;53.380;7.226;2023-07-13T12:17:47;101982.06;;;19.15;100.00
25498;BME280;13406;53.380;7.226;2023-07-13T12:20:28;101980.25;;;18.91;100.00
25498;BME280;13406;53.380;7.226;2023-07-13T12:22:58;102000.06;;;18.55;100.00
25498;BME280;13406;53.380;7.226;2023-07-13T12:25:24;101931.47;;;17.91;100.00
25498;BME280;13406;53.380;7.226;2023-07-13T12:27:50;101906.16;;;17.97;100.00
25498;BME280;13406;53.380;7.226;2023-07-13T12:30:30;102072.19;;;19.01;100.00
25498;BME280;13406;53.380;7.226;2023-07-13T12:33:12;102045.13;;;19.06;100.00
25498;BME280;13406;53.380;7.226;2023-07-13T12:35:45;102032.34;;;19.43;100.00
25498;BME280;13406;53.380;7.226;2023-07-13T12:38:12;101961.69;;;19.36;100.00
25498;BME280;13406;53.380;7.226;2023-07-13T12:40:37;101662.50;;;17.55;100.00
25498;BME280;13406;53.380;7.226;2023-07-13T12:43:09;101758.19;;;18.43;100.00
25498;BME280;13406;53.380;7.226;2023-07-13T12:45:36;101806.50;;;18.89;100.00
25498;BME280;13406;53.380;7.226;2023-07-13T12:48:05;101915.97;;;19.57;100.00
25498;BME280;13406;53.380;7.226;2023-07-13T12:50:38;101946.69;;;19.46;100.00
25498;BME280;13406;53.380;7.226;2023-07-13T12:53:13;101937.50;;;19.77;100.00
25498;BME280;13406;53.380;7.226;2023-07-13T12:55:46;101846.91;;;19.70;100.00
25498;BME280;13406;53.380;7.226;2023-07-13T12:58:42;101891.56;;;19.92;100.00
25498;BME280;13406;53.380;7.226;2023-07-13T13:01:10;101879.16;;;20.20;100.00
25498;BME280;13406;53.380;7.226;2023-07-13T13:03:45;101873.22;;;20.35;100.00
25498;BME280;13406;53.380;7.226;2023-07-13T13:08:40;101878.56;;;19.94;100.00
25498;BME280;13406;53.380;7.226;2023-07-13T13:11:08;101827.25;;;19.14;100.00
25498;BME280;13406;53.380;7.226;2023-07-13T13:13:34;101864.47;;;19.02;100.00
25498;BME280;13406;53.380;7.226;2023-07-13T13:16:12;101950.00;;;19.17;100.00
25498;BME280;13406;53.380;7.226;2023-07-13T13:18:39;102088.31;;;20.18;100.00
25498;BME280;13406;53.380;7.226;2023-07-13T13:21:05;101967.16;;;19.67;100.00
25498;BME280;13406;53.380;7.226;2023-07-13T13:23:31;101756.97;;;18.87;100.00
25498;BME280;13406;53.380;7.226;2023-07-13T13:25:57;101868.19;;;19.61;100.00